sensor_id;sensor_type;location;lat;lon;timestamp;P1;durP1;ratioP1;P2;durP2;ratioP2
37365;SDS011;23239;51.504;7.456;2023-04-24T00:00:00;1.2;;;0.6;;
37365;SDS011;23239;51.504;7.456;2023-04-24T00:01:00;1.2;;;0.6;;
37365;SDS011;23239;51.504;7.456;2023-04-24T00:02:00;1.2;;;0.6;;
37365;SDS011;23239;51.504;7.456;2023-04-24T00:03:00;1.2;;;0.6;;
37365;SDS011;23239;51.504;7.456;2023-04-24T00:04:00;1.2;;;0.6;;
37365;SDS011;23239;51.504;7.456;2023-04-24T00:05:00;2.4;;;0.6;;
37365;SDS011;23239;51.504;7.456;2023-04-24T00:06:00;2.4;;;0.6;;
37365;SDS011;23239;51.504;7.456;2023-04-24T00:07:00;2.4;;;0.6;;
37365;SDS011;23239;51.504;7.456;2023-04-24T00:08:00;2.4;;;0.6;;
37365;SDS011;23239;51.504;7.456;2023-04-24T00:09:00;2.4;;;0.6;;
37365;SDS011;23239;51.504;7.456;2023-04-24T00:10:00;0.7;;;0.5;;
37365;SDS011;23239;51.504;7.456;2023-04-24T00:11:00;0.7;;;0.5;;
37365;SDS011;23239;51.504;7.456;2023-04-24T00:12:00;0.7;;;0.5;;
37365;SDS011;23239;51.504;7.456;2023-04-24T00:13:00;0.7;;;0.5;;
37365;SDS011;23239;51.504;7.456;2023-04-24T00:14:00;0.7;;;0.5;;
37365;SDS011;23239;51.504;7.456;2023-04-24T00:15:00;0.9;;;0.6;;
37365;SDS011;23239;51.504;7.456;2023-04-24T00:16:00;0.9;;;0.6;;
37365;SDS011;23239;51.504;7.456;2023-04-24T00:17:00;0.9;;;0.6;;
37365;SDS011;23239;51.504;7.456;2023-04-24T00:18:00;0.9;;;0.6;;
37365;SDS011;23239;51.504;7.456;2023-04-24T00:19:00;0.9;;;0.6;;
37365;SDS011;23239;51.504;7.456;2023-04-24T00:20:00;1.3;;;0.5;;
37365;SDS011;23239;51.504;7.456;2023-04-24T00:21:00;1.3;;;0.5;;
37365;SDS011;23239;51.504;7.456;2023-04-24T00:22:00;1.3;;;0.5;;
37365;SDS011;23239;51.504;7.456;2023-04-24T00:23:00;1.3;;;0.5;;
37365;SDS011;23239;51.504;7.456;2023-04-24T00:24:00;1.3;;;0.5;;
37365;SDS011;23239;51.504;7.456;2023-04-24T00:25:00;0.8;;;0.5;;
37365;SDS011;23239;51.504;7.456;2023-04-24T00:26:00;0.8;;;0.5;;
37365;SDS011;23239;51.504;7.456;2023-04-24T00:27:00;0.8;;;0.5;;
37365;SDS011;23239;51.504;7.456;2023-04-24T00:28:00;0.8;;;0.5;;
37365;SDS011;23239;51.504;7.456;2023-04-24T00:29:00;0.8;;;0.5;;
37365;SDS011;23239;51.504;7.456;2023-04-24T00:30:00;1.9;;;0.6;;
37365;SDS011;23239;51.504;7.456;2023-04-24T00:31:00;1.9;;;0.6;;
37365;SDS011;23239;51.504;7.456;2023-04-24T00:32:00;1.9;;;0.6;;
37365;SDS011;23239;51.504;7.456;2023-04-24T00:33:00;1.9;;;0.6;;
37365;SDS011;23239;51.504;7.456;2023-04-24T00:34:00;1.9;;;0.6;;
37365;SDS011;23239;51.504;7.456;2023-04-24T00:35:00;1.1;;;0.7;;
37365;SDS011;23239;51.504;7.456;2023-04-24T00:36:00;1.1;;;0.7;;
37365;SDS011;23239;51.504;7.456;2023-04-24T00:37:00;1.1;;;0.7;;
37365;SDS011;23239;51.504;7.456;2023-04-24T00:38:00;1.1;;;0.7;;
37365;SDS011;23239;51.504;7.456;2023-04-24T00:39:00;1.1;;;0.7;;
37365;SDS011;23239;51.504;7.456;2023-04-24T00:40:00;1.9;;;0.8;;
37365;SDS011;23239;51.504;7.456;2023-04-24T00:41:00;1.9;;;0.8;;
37365;SDS011;23239;51.504;7.456;2023-04-24T00:42:00;1.9;;;0.8;;
37365;SDS011;23239;51.504;7.456;2023-04-24T00:43:00;1.9;;;0.8;;
37365;SDS011;23239;51.504;7.456;2023-04-24T00:44:00;1.9;;;0.8;;
37365;SDS011;23239;51.504;7.456;2023-04-24T00:45:00;0.7;;;0.6;;
37365;SDS011;23239;51.504;7.456;2023-04-24T00:46:00;0.7;;;0.6;;
37365;SDS011;23239;51.504;7.456;2023-04-24T00:47:00;0.7;;;0.6;;
37365;SDS011;23239;51.504;7.456;2023-04-24T00:48:00;0.7;;;0.6;;
37365;SDS011;23239;51.504;7.456;2023-04-24T00:49:00;0.7;;;0.6;;
37365;SDS011;23239;51.504;7.456;2023-04-24T00:50:00;1.2;;;0.8;;
37365;SDS011;23239;51.504;7.456;2023-04-24T00:51:00;1.2;;;0.8;;
37365;SDS011;23239;51.504;7.456;2023-04-24T00:52:00;1.2;;;0.8;;
37365;SDS011;23239;51.504;7.456;2023-04-24T00:53:00;1.2;;;0.8;;
37365;SDS011;23239;51.504;7.456;2023-04-24T00:54:00;1.2;;;0.8;;
37365;SDS011;23239;51.504;7.456;2023-04-24T00:55:00;1.6;;;0.9;;
37365;SDS011;23239;51.504;7.456;2023-04-24T00:56:00;1.6;;;0.9;;
37365;SDS011;23239;51.504;7.456;2023-04-24T00:57:00;1.6;;;0.9;;
37365;SDS011;23239;51.504;7.456;2023-04-24T00:58:00;1.6;;;0.9;;
37365;SDS011;23239;51.504;7.456;2023-04-24T00:59:00;1.6;;;0.9;;
37365;SDS011;23239;51.504;7.456;2023-04-24T01:00:00;1.2;;;0.9;;
37365;SDS011;23239;51.504;7.456;2023-04-24T01:01:00;1.2;;;0.9;;
37365;SDS011;23239;51.504;7.456;2023-04-24T01:02:00;1.2;;;0.9;;
37365;SDS011;23239;51.504;7.456;2023-04-24T01:03:00;1.2;;;0.9;;
37365;SDS011;23239;51.504;7.456;2023-04-24T01:04:00;1.2;;;0.9;;
37365;SDS011;23239;51.504;7.456;2023-04-24T01:05:00;1.6;;;1.1;;
37365;SDS011;23239;51.504;7.456;2023-04-24T01:06:00;1.6;;;1.1;;
37365;SDS011;23239;51.504;7.456;2023-04-24T01:07:00;1.6;;;1.1;;
37365;SDS011;23239;51.504;7.456;2023-04-24T01:08:00;1.6;;;1.1;;
37365;SDS011;23239;51.504;7.456;2023-04-24T01:09:00;1.6;;;1.1;;
37365;SDS011;23239;51.504;7.456;2023-04-24T01:10:00;1.2;;;1.0;;
37365;SDS011;23239;51.504;7.456;2023-04-24T01:11:00;1.2;;;1.0;;
37365;SDS011;23239;51.504;7.456;2023-04-24T01:12:00;1.2;;;1.0;;
37365;SDS011;23239;51.504;7.456;2023-04-24T01:13:00;1.2;;;1.0;;
37365;SDS011;23239;51.504;7.456;2023-04-24T01:14:00;1.2;;;1.0;;
37365;SDS011;23239;51.504;7.456;2023-04-24T01:15:00;1.7;;;1.0;;
37365;SDS011;23239;51.504;7.456;2023-04-24T01:16:00;1.7;;;1.0;;
37365;SDS011;23239;51.504;7.456;2023-04-24T01:17:00;1.7;;;1.0;;
37365;SDS011;23239;51.504;7.456;2023-04-24T01:18:00;1.7;;;1.0;;
37365;SDS011;23239;51.504;7.456;2023-04-24T01:19:00;1.7;;;1.0;;
37365;SDS011;23239;51.504;7.456;2023-04-24T01:20:00;4.0;;;1.0;;
37365;SDS011;23239;51.504;7.456;2023-04-24T01:21:00;4.0;;;1.0;;
37365;SDS011;23239;51.504;7.456;2023-04-24T01:22:01;4.0;;;1.0;;
37365;SDS011;23239;51.504;7.456;2023-04-24T01:23:00;4.0;;;1.0;;
37365;SDS011;23239;51.504;7.456;2023-04-24T01:24:00;4.0;;;1.0;;
37365;SDS011;23239;51.504;7.456;2023-04-24T01:25:00;2.5;;;1.0;;
37365;SDS011;23239;51.504;7.456;2023-04-24T01:26:00;2.5;;;1.0;;
37365;SDS011;23239;51.504;7.456;2023-04-24T01:27:00;2.5;;;1.0;;
37365;SDS011;23239;51.504;7.456;2023-04-24T01:28:00;2.5;;;1.0;;
37365;SDS011;23239;51.504;7.456;2023-04-24T01:29:00;2.5;;;1.0;;
37365;SDS011;23239;51.504;7.456;2023-04-24T01:30:00;1.8;;;0.9;;
37365;SDS011;23239;51.504;7.456;2023-04-24T01:31:00;1.8;;;0.9;;
37365;SDS011;23239;51.504;7.456;2023-04-24T01:32:00;1.8;;;0.9;;
37365;SDS011;23239;51.504;7.456;2023-04-24T01:33:00;1.8;;;0.9;;
37365;SDS011;23239;51.504;7.456;2023-04-24T01:34:00;1.8;;;0.9;;
37365;SDS011;23239;51.504;7.456;2023-04-24T01:35:00;2.3;;;0.9;;
37365;SDS011;23239;51.504;7.456;2023-04-24T01:36:00;2.3;;;0.9;;
37365;SDS011;23239;51.504;7.456;2023-04-24T01:37:00;2.3;;;0.9;;
37365;SDS011;23239;51.504;7.456;2023-04-24T01:38:00;2.3;;;0.9;;
37365;SDS011;23239;51.504;7.456;2023-04-24T01:39:00;2.3;;;0.9;;
37365;SDS011;23239;51.504;7.456;2023-04-24T01:40:00;1.5;;;1.0;;
37365;SDS011;23239;51.504;7.456;2023-04-24T01:41:00;1.5;;;1.0;;
37365;SDS011;23239;51.504;7.456;2023-04-24T01:42:00;1.5;;;1.0;;
37365;SDS011;23239;51.504;7.456;2023-04-24T01:43:00;1.5;;;1.0;;
37365;SDS011;23239;51.504;7.456;2023-04-24T01:44:00;1.5;;;1.0;;
37365;SDS011;23239;51.504;7.456;2023-04-24T01:45:00;2.2;;;1.1;;
37365;SDS011;23239;51.504;7.456;2023-04-24T01:46:00;2.2;;;1.1;;
37365;SDS011;23239;51.504;7.456;2023-04-24T01:47:00;2.2;;;1.1;;
37365;SDS011;23239;51.504;7.456;2023-04-24T01:48:00;2.2;;;1.1;;
37365;SDS011;23239;51.504;7.456;2023-04-24T01:49:00;2.2;;;1.1;;
37365;SDS011;23239;51.504;7.456;2023-04-24T01:50:00;6.2;;;1.0;;
37365;SDS011;23239;51.504;7.456;2023-04-24T01:51:00;6.2;;;1.0;;
37365;SDS011;23239;51.504;7.456;2023-04-24T01:52:00;6.2;;;1.0;;
37365;SDS011;23239;51.504;7.456;2023-04-24T01:53:00;6.2;;;1.0;;
37365;SDS011;23239;51.504;7.456;2023-04-24T01:54:00;6.2;;;1.0;;
37365;SDS011;23239;51.504;7.456;2023-04-24T01:55:00;2.2;;;1.1;;
37365;SDS011;23239;51.504;7.456;2023-04-24T01:56:00;2.2;;;1.1;;
37365;SDS011;23239;51.504;7.456;2023-04-24T01:57:00;2.2;;;1.1;;
37365;SDS011;23239;51.504;7.456;2023-04-24T01:58:00;2.2;;;1.1;;
37365;SDS011;23239;51.504;7.456;2023-04-24T01:59:00;2.2;;;1.1;;
37365;SDS011;23239;51.504;7.456;2023-04-24T02:00:00;1.8;;;1.0;;
37365;SDS011;23239;51.504;7.456;2023-04-24T02:01:00;1.8;;;1.0;;
37365;SDS011;23239;51.504;7.456;2023-04-24T02:02:00;1.8;;;1.0;;
37365;SDS011;23239;51.504;7.456;2023-04-24T02:03:00;1.8;;;1.0;;
37365;SDS011;23239;51.504;7.456;2023-04-24T02:04:00;1.8;;;1.0;;
37365;SDS011;23239;51.504;7.456;2023-04-24T02:05:00;2.0;;;1.3;;
37365;SDS011;23239;51.504;7.456;2023-04-24T02:06:00;2.0;;;1.3;;
37365;SDS011;23239;51.504;7.456;2023-04-24T02:07:00;2.0;;;1.3;;
37365;SDS011;23239;51.504;7.456;2023-04-24T02:08:00;2.0;;;1.3;;
37365;SDS011;23239;51.504;7.456;2023-04-24T02:09:00;2.0;;;1.3;;
37365;SDS011;23239;51.504;7.456;2023-04-24T02:10:00;3.1;;;1.0;;
37365;SDS011;23239;51.504;7.456;2023-04-24T02:11:00;3.1;;;1.0;;
37365;SDS011;23239;51.504;7.456;2023-04-24T02:12:00;3.1;;;1.0;;
37365;SDS011;23239;51.504;7.456;2023-04-24T02:13:00;3.1;;;1.0;;
37365;SDS011;23239;51.504;7.456;2023-04-24T02:14:00;3.1;;;1.0;;
37365;SDS011;23239;51.504;7.456;2023-04-24T02:15:00;3.2;;;1.4;;
37365;SDS011;23239;51.504;7.456;2023-04-24T02:16:00;3.2;;;1.4;;
37365;SDS011;23239;51.504;7.456;2023-04-24T02:17:00;3.2;;;1.4;;
37365;SDS011;23239;51.504;7.456;2023-04-24T02:18:00;3.2;;;1.4;;
37365;SDS011;23239;51.504;7.456;2023-04-24T02:19:00;3.2;;;1.4;;
37365;SDS011;23239;51.504;7.456;2023-04-24T02:20:00;2.4;;;1.3;;
37365;SDS011;23239;51.504;7.456;2023-04-24T02:21:00;2.4;;;1.3;;
37365;SDS011;23239;51.504;7.456;2023-04-24T02:22:00;2.4;;;1.3;;
37365;SDS011;23239;51.504;7.456;2023-04-24T02:23:00;2.4;;;1.3;;
37365;SDS011;23239;51.504;7.456;2023-04-24T02:24:00;2.4;;;1.3;;
37365;SDS011;23239;51.504;7.456;2023-04-24T02:25:00;2.9;;;1.6;;
37365;SDS011;23239;51.504;7.456;2023-04-24T02:26:00;2.9;;;1.6;;
37365;SDS011;23239;51.504;7.456;2023-04-24T02:27:00;2.9;;;1.6;;
37365;SDS011;23239;51.504;7.456;2023-04-24T02:28:00;2.9;;;1.6;;
37365;SDS011;23239;51.504;7.456;2023-04-24T02:29:00;2.9;;;1.6;;
37365;SDS011;23239;51.504;7.456;2023-04-24T02:30:00;3.1;;;1.8;;
37365;SDS011;23239;51.504;7.456;2023-04-24T02:31:00;3.1;;;1.8;;
37365;SDS011;23239;51.504;7.456;2023-04-24T02:32:00;3.1;;;1.8;;
37365;SDS011;23239;51.504;7.456;2023-04-24T02:33:00;3.1;;;1.8;;
37365;SDS011;23239;51.504;7.456;2023-04-24T02:34:00;3.1;;;1.8;;
37365;SDS011;23239;51.504;7.456;2023-04-24T02:35:00;6.3;;;2.2;;
37365;SDS011;23239;51.504;7.456;2023-04-24T02:36:00;6.3;;;2.2;;
37365;SDS011;23239;51.504;7.456;2023-04-24T02:37:00;6.3;;;2.2;;
37365;SDS011;23239;51.504;7.456;2023-04-24T02:38:00;6.3;;;2.2;;
37365;SDS011;23239;51.504;7.456;2023-04-24T02:39:00;6.3;;;2.2;;
37365;SDS011;23239;51.504;7.456;2023-04-24T02:40:00;3.5;;;2.3;;
37365;SDS011;23239;51.504;7.456;2023-04-24T02:41:00;3.5;;;2.3;;
37365;SDS011;23239;51.504;7.456;2023-04-24T02:42:00;3.5;;;2.3;;
37365;SDS011;23239;51.504;7.456;2023-04-24T02:43:00;3.5;;;2.3;;
37365;SDS011;23239;51.504;7.456;2023-04-24T02:44:00;3.5;;;2.3;;
37365;SDS011;23239;51.504;7.456;2023-04-24T02:45:00;4.1;;;2.4;;
37365;SDS011;23239;51.504;7.456;2023-04-24T02:46:00;4.1;;;2.4;;
37365;SDS011;23239;51.504;7.456;2023-04-24T02:47:00;4.1;;;2.4;;
37365;SDS011;23239;51.504;7.456;2023-04-24T02:48:00;4.1;;;2.4;;
37365;SDS011;23239;51.504;7.456;2023-04-24T02:49:00;4.1;;;2.4;;
37365;SDS011;23239;51.504;7.456;2023-04-24T02:50:00;4.5;;;2.7;;
37365;SDS011;23239;51.504;7.456;2023-04-24T02:51:00;4.5;;;2.7;;
37365;SDS011;23239;51.504;7.456;2023-04-24T02:52:00;4.5;;;2.7;;
37365;SDS011;23239;51.504;7.456;2023-04-24T02:53:00;4.5;;;2.7;;
37365;SDS011;23239;51.504;7.456;2023-04-24T02:54:00;4.5;;;2.7;;
37365;SDS011;23239;51.504;7.456;2023-04-24T02:55:00;3.9;;;2.7;;
37365;SDS011;23239;51.504;7.456;2023-04-24T02:56:00;3.9;;;2.7;;
37365;SDS011;23239;51.504;7.456;2023-04-24T02:57:00;3.9;;;2.7;;
37365;SDS011;23239;51.504;7.456;2023-04-24T02:58:00;3.9;;;2.7;;
37365;SDS011;23239;51.504;7.456;2023-04-24T02:59:00;3.9;;;2.7;;
37365;SDS011;23239;51.504;7.456;2023-04-24T03:00:00;5.1;;;3.3;;
37365;SDS011;23239;51.504;7.456;2023-04-24T03:01:00;5.1;;;3.3;;
37365;SDS011;23239;51.504;7.456;2023-04-24T03:02:00;5.1;;;3.3;;
37365;SDS011;23239;51.504;7.456;2023-04-24T03:03:00;5.1;;;3.3;;
37365;SDS011;23239;51.504;7.456;2023-04-24T03:04:00;5.1;;;3.3;;
37365;SDS011;23239;51.504;7.456;2023-04-24T03:05:00;7.6;;;4.6;;
37365;SDS011;23239;51.504;7.456;2023-04-24T03:06:00;7.6;;;4.6;;
37365;SDS011;23239;51.504;7.456;2023-04-24T03:07:00;7.6;;;4.6;;
37365;SDS011;23239;51.504;7.456;2023-04-24T03:08:00;7.6;;;4.6;;
37365;SDS011;23239;51.504;7.456;2023-04-24T03:09:00;7.6;;;4.6;;
37365;SDS011;23239;51.504;7.456;2023-04-24T03:10:00;9.1;;;4.6;;
37365;SDS011;23239;51.504;7.456;2023-04-24T03:11:00;9.1;;;4.6;;
37365;SDS011;23239;51.504;7.456;2023-04-24T03:12:00;9.1;;;4.6;;
37365;SDS011;23239;51.504;7.456;2023-04-24T03:13:00;9.1;;;4.6;;
37365;SDS011;23239;51.504;7.456;2023-04-24T03:14:00;9.1;;;4.6;;
37365;SDS011;23239;51.504;7.456;2023-04-24T03:15:00;6.3;;;4.2;;
37365;SDS011;23239;51.504;7.456;2023-04-24T03:16:00;6.3;;;4.2;;
37365;SDS011;23239;51.504;7.456;2023-04-24T03:17:00;6.3;;;4.2;;
37365;SDS011;23239;51.504;7.456;2023-04-24T03:18:00;6.3;;;4.2;;
37365;SDS011;23239;51.504;7.456;2023-04-24T03:19:00;6.3;;;4.2;;
37365;SDS011;23239;51.504;7.456;2023-04-24T03:20:00;8.3;;;5.4;;
37365;SDS011;23239;51.504;7.456;2023-04-24T03:21:00;8.3;;;5.4;;
37365;SDS011;23239;51.504;7.456;2023-04-24T03:22:01;8.3;;;5.4;;
37365;SDS011;23239;51.504;7.456;2023-04-24T03:23:00;8.3;;;5.4;;
37365;SDS011;23239;51.504;7.456;2023-04-24T03:24:00;8.3;;;5.4;;
37365;SDS011;23239;51.504;7.456;2023-04-24T03:25:00;7.0;;;5.0;;
37365;SDS011;23239;51.504;7.456;2023-04-24T03:26:00;7.0;;;5.0;;
37365;SDS011;23239;51.504;7.456;2023-04-24T03:27:00;7.0;;;5.0;;
37365;SDS011;23239;51.504;7.456;2023-04-24T03:28:00;7.0;;;5.0;;
37365;SDS011;23239;51.504;7.456;2023-04-24T03:29:00;7.0;;;5.0;;
37365;SDS011;23239;51.504;7.456;2023-04-24T03:30:00;9.0;;;5.9;;
37365;SDS011;23239;51.504;7.456;2023-04-24T03:31:00;9.0;;;5.9;;
37365;SDS011;23239;51.504;7.456;2023-04-24T03:32:00;9.0;;;5.9;;
37365;SDS011;23239;51.504;7.456;2023-04-24T03:33:00;9.0;;;5.9;;
37365;SDS011;23239;51.504;7.456;2023-04-24T03:34:00;9.0;;;5.9;;
37365;SDS011;23239;51.504;7.456;2023-04-24T03:35:00;10.7;;;6.2;;
37365;SDS011;23239;51.504;7.456;2023-04-24T03:36:00;10.7;;;6.2;;
37365;SDS011;23239;51.504;7.456;2023-04-24T03:37:00;10.7;;;6.2;;
37365;SDS011;23239;51.504;7.456;2023-04-24T03:38:00;10.7;;;6.2;;
37365;SDS011;23239;51.504;7.456;2023-04-24T03:39:00;10.7;;;6.2;;
37365;SDS011;23239;51.504;7.456;2023-04-24T03:40:00;9.4;;;6.8;;
37365;SDS011;23239;51.504;7.456;2023-04-24T03:41:00;9.4;;;6.8;;
37365;SDS011;23239;51.504;7.456;2023-04-24T03:42:00;9.4;;;6.8;;
37365;SDS011;23239;51.504;7.456;2023-04-24T03:43:00;9.4;;;6.8;;
37365;SDS011;23239;51.504;7.456;2023-04-24T03:44:00;9.4;;;6.8;;
37365;SDS011;23239;51.504;7.456;2023-04-24T03:45:00;11.1;;;7.3;;
37365;SDS011;23239;51.504;7.456;2023-04-24T03:46:00;11.1;;;7.3;;
37365;SDS011;23239;51.504;7.456;2023-04-24T03:47:00;11.1;;;7.3;;
37365;SDS011;23239;51.504;7.456;2023-04-24T03:48:00;11.1;;;7.3;;
37365;SDS011;23239;51.504;7.456;2023-04-24T03:49:00;11.1;;;7.3;;
37365;SDS011;23239;51.504;7.456;2023-04-24T03:50:00;11.4;;;7.4;;
37365;SDS011;23239;51.504;7.456;2023-04-24T03:51:00;11.4;;;7.4;;
37365;SDS011;23239;51.504;7.456;2023-04-24T03:52:00;11.4;;;7.4;;
37365;SDS011;23239;51.504;7.456;2023-04-24T03:53:00;11.4;;;7.4;;
37365;SDS011;23239;51.504;7.456;2023-04-24T03:54:00;11.4;;;7.4;;
37365;SDS011;23239;51.504;7.456;2023-04-24T03:55:00;11.2;;;7.4;;
37365;SDS011;23239;51.504;7.456;2023-04-24T03:56:00;11.2;;;7.4;;
37365;SDS011;23239;51.504;7.456;2023-04-24T03:57:00;11.2;;;7.4;;
37365;SDS011;23239;51.504;7.456;2023-04-24T03:58:00;11.2;;;7.4;;
37365;SDS011;23239;51.504;7.456;2023-04-24T03:59:00;11.2;;;7.4;;
37365;SDS011;23239;51.504;7.456;2023-04-24T04:00:00;10.8;;;7.0;;
37365;SDS011;23239;51.504;7.456;2023-04-24T04:01:00;10.8;;;7.0;;
37365;SDS011;23239;51.504;7.456;2023-04-24T04:02:00;10.8;;;7.0;;
37365;SDS011;23239;51.504;7.456;2023-04-24T04:03:00;10.8;;;7.0;;
37365;SDS011;23239;51.504;7.456;2023-04-24T04:04:00;10.8;;;7.0;;
37365;SDS011;23239;51.504;7.456;2023-04-24T04:05:00;11.7;;;7.9;;
37365;SDS011;23239;51.504;7.456;2023-04-24T04:06:00;11.7;;;7.9;;
37365;SDS011;23239;51.504;7.456;2023-04-24T04:07:00;11.7;;;7.9;;
37365;SDS011;23239;51.504;7.456;2023-04-24T04:08:00;11.7;;;7.9;;
37365;SDS011;23239;51.504;7.456;2023-04-24T04:09:00;11.7;;;7.9;;
37365;SDS011;23239;51.504;7.456;2023-04-24T04:10:00;14.9;;;7.7;;
37365;SDS011;23239;51.504;7.456;2023-04-24T04:11:00;14.9;;;7.7;;
37365;SDS011;23239;51.504;7.456;2023-04-24T04:12:00;14.9;;;7.7;;
37365;SDS011;23239;51.504;7.456;2023-04-24T04:13:00;14.9;;;7.7;;
37365;SDS011;23239;51.504;7.456;2023-04-24T04:14:00;14.9;;;7.7;;
37365;SDS011;23239;51.504;7.456;2023-04-24T04:15:00;15.0;;;8.2;;
37365;SDS011;23239;51.504;7.456;2023-04-24T04:16:00;15.0;;;8.2;;
37365;SDS011;23239;51.504;7.456;2023-04-24T04:17:00;15.0;;;8.2;;
37365;SDS011;23239;51.504;7.456;2023-04-24T04:18:00;15.0;;;8.2;;
37365;SDS011;23239;51.504;7.456;2023-04-24T04:19:00;15.0;;;8.2;;
37365;SDS011;23239;51.504;7.456;2023-04-24T04:20:00;12.3;;;7.6;;
37365;SDS011;23239;51.504;7.456;2023-04-24T04:21:00;12.3;;;7.6;;
37365;SDS011;23239;51.504;7.456;2023-04-24T04:22:00;12.3;;;7.6;;
37365;SDS011;23239;51.504;7.456;2023-04-24T04:23:00;12.3;;;7.6;;
37365;SDS011;23239;51.504;7.456;2023-04-24T04:24:00;12.3;;;7.6;;
37365;SDS011;23239;51.504;7.456;2023-04-24T04:25:00;11.4;;;7.6;;
37365;SDS011;23239;51.504;7.456;2023-04-24T04:26:00;11.4;;;7.6;;
37365;SDS011;23239;51.504;7.456;2023-04-24T04:27:00;11.4;;;7.6;;
37365;SDS011;23239;51.504;7.456;2023-04-24T04:28:00;11.4;;;7.6;;
37365;SDS011;23239;51.504;7.456;2023-04-24T04:29:00;11.4;;;7.6;;
37365;SDS011;23239;51.504;7.456;2023-04-24T04:30:00;9.5;;;7.4;;
37365;SDS011;23239;51.504;7.456;2023-04-24T04:31:00;9.5;;;7.4;;
37365;SDS011;23239;51.504;7.456;2023-04-24T04:32:00;9.5;;;7.4;;
37365;SDS011;23239;51.504;7.456;2023-04-24T04:33:00;9.5;;;7.4;;
37365;SDS011;23239;51.504;7.456;2023-04-24T04:34:00;9.5;;;7.4;;
37365;SDS011;23239;51.504;7.456;2023-04-24T04:35:00;12.3;;;8.3;;
37365;SDS011;23239;51.504;7.456;2023-04-24T04:36:00;12.3;;;8.3;;
37365;SDS011;23239;51.504;7.456;2023-04-24T04:37:00;12.3;;;8.3;;
37365;SDS011;23239;51.504;7.456;2023-04-24T04:38:00;12.3;;;8.3;;
37365;SDS011;23239;51.504;7.456;2023-04-24T04:39:00;12.3;;;8.3;;
37365;SDS011;23239;51.504;7.456;2023-04-24T04:40:00;13.7;;;8.0;;
37365;SDS011;23239;51.504;7.456;2023-04-24T04:41:00;13.7;;;8.0;;
37365;SDS011;23239;51.504;7.456;2023-04-24T04:42:00;13.7;;;8.0;;
37365;SDS011;23239;51.504;7.456;2023-04-24T04:43:00;13.7;;;8.0;;
37365;SDS011;23239;51.504;7.456;2023-04-24T04:44:00;13.7;;;8.0;;
37365;SDS011;23239;51.504;7.456;2023-04-24T04:45:00;11.0;;;7.9;;
37365;SDS011;23239;51.504;7.456;2023-04-24T04:46:00;11.0;;;7.9;;
37365;SDS011;23239;51.504;7.456;2023-04-24T04:47:00;11.0;;;7.9;;
37365;SDS011;23239;51.504;7.456;2023-04-24T04:48:00;11.0;;;7.9;;
37365;SDS011;23239;51.504;7.456;2023-04-24T04:49:00;11.0;;;7.9;;
37365;SDS011;23239;51.504;7.456;2023-04-24T04:50:00;13.0;;;8.8;;
37365;SDS011;23239;51.504;7.456;2023-04-24T04:51:00;13.0;;;8.8;;
37365;SDS011;23239;51.504;7.456;2023-04-24T04:52:00;13.0;;;8.8;;
37365;SDS011;23239;51.504;7.456;2023-04-24T04:53:00;13.0;;;8.8;;
37365;SDS011;23239;51.504;7.456;2023-04-24T04:54:00;13.0;;;8.8;;
37365;SDS011;23239;51.504;7.456;2023-04-24T04:55:00;13.4;;;8.6;;
37365;SDS011;23239;51.504;7.456;2023-04-24T04:56:00;13.4;;;8.6;;
37365;SDS011;23239;51.504;7.456;2023-04-24T04:57:00;13.4;;;8.6;;
37365;SDS011;23239;51.504;7.456;2023-04-24T04:58:00;13.4;;;8.6;;
37365;SDS011;23239;51.504;7.456;2023-04-24T04:59:00;13.4;;;8.6;;
37365;SDS011;23239;51.504;7.456;2023-04-24T05:00:00;14.7;;;9.0;;
37365;SDS011;23239;51.504;7.456;2023-04-24T05:01:00;14.7;;;9.0;;
37365;SDS011;23239;51.504;7.456;2023-04-24T05:02:00;14.7;;;9.0;;
37365;SDS011;23239;51.504;7.456;2023-04-24T05:03:00;14.7;;;9.0;;
37365;SDS011;23239;51.504;7.456;2023-04-24T05:04:00;14.7;;;9.0;;
37365;SDS011;23239;51.504;7.456;2023-04-24T05:05:00;17.9;;;9.5;;
37365;SDS011;23239;51.504;7.456;2023-04-24T05:06:00;17.9;;;9.5;;
37365;SDS011;23239;51.504;7.456;2023-04-24T05:07:00;17.9;;;9.5;;
37365;SDS011;23239;51.504;7.456;2023-04-24T05:08:00;17.9;;;9.5;;
37365;SDS011;23239;51.504;7.456;2023-04-24T05:09:00;17.9;;;9.5;;
37365;SDS011;23239;51.504;7.456;2023-04-24T05:10:00;13.0;;;8.8;;
37365;SDS011;23239;51.504;7.456;2023-04-24T05:11:00;13.0;;;8.8;;
37365;SDS011;23239;51.504;7.456;2023-04-24T05:12:00;13.0;;;8.8;;
37365;SDS011;23239;51.504;7.456;2023-04-24T05:13:00;13.0;;;8.8;;
37365;SDS011;23239;51.504;7.456;2023-04-24T05:14:00;13.0;;;8.8;;
37365;SDS011;23239;51.504;7.456;2023-04-24T05:15:00;14.6;;;9.0;;
37365;SDS011;23239;51.504;7.456;2023-04-24T05:16:00;14.6;;;9.0;;
37365;SDS011;23239;51.504;7.456;2023-04-24T05:17:00;14.6;;;9.0;;
37365;SDS011;23239;51.504;7.456;2023-04-24T05:18:00;14.6;;;9.0;;
37365;SDS011;23239;51.504;7.456;2023-04-24T05:19:00;14.6;;;9.0;;
37365;SDS011;23239;51.504;7.456;2023-04-24T05:20:00;14.0;;;9.6;;
37365;SDS011;23239;51.504;7.456;2023-04-24T05:21:00;14.0;;;9.6;;
37365;SDS011;23239;51.504;7.456;2023-04-24T05:22:00;14.0;;;9.6;;
37365;SDS011;23239;51.504;7.456;2023-04-24T05:23:00;14.0;;;9.6;;
37365;SDS011;23239;51.504;7.456;2023-04-24T05:24:00;14.0;;;9.6;;
37365;SDS011;23239;51.504;7.456;2023-04-24T05:25:00;12.9;;;9.0;;
37365;SDS011;23239;51.504;7.456;2023-04-24T05:26:00;12.9;;;9.0;;
37365;SDS011;23239;51.504;7.456;2023-04-24T05:27:00;12.9;;;9.0;;
37365;SDS011;23239;51.504;7.456;2023-04-24T05:28:00;12.9;;;9.0;;
37365;SDS011;23239;51.504;7.456;2023-04-24T05:29:00;12.9;;;9.0;;
37365;SDS011;23239;51.504;7.456;2023-04-24T05:30:00;11.2;;;8.3;;
37365;SDS011;23239;51.504;7.456;2023-04-24T05:31:00;11.2;;;8.3;;
37365;SDS011;23239;51.504;7.456;2023-04-24T05:32:00;11.2;;;8.3;;
37365;SDS011;23239;51.504;7.456;2023-04-24T05:33:00;11.2;;;8.3;;
37365;SDS011;23239;51.504;7.456;2023-04-24T05:34:00;11.2;;;8.3;;
37365;SDS011;23239;51.504;7.456;2023-04-24T05:35:00;11.0;;;7.6;;
37365;SDS011;23239;51.504;7.456;2023-04-24T05:36:00;11.0;;;7.6;;
37365;SDS011;23239;51.504;7.456;2023-04-24T05:37:00;11.0;;;7.6;;
37365;SDS011;23239;51.504;7.456;2023-04-24T05:38:00;11.0;;;7.6;;
37365;SDS011;23239;51.504;7.456;2023-04-24T05:39:00;11.0;;;7.6;;
37365;SDS011;23239;51.504;7.456;2023-04-24T05:40:00;11.0;;;7.0;;
37365;SDS011;23239;51.504;7.456;2023-04-24T05:41:00;11.0;;;7.0;;
37365;SDS011;23239;51.504;7.456;2023-04-24T05:42:00;11.0;;;7.0;;
37365;SDS011;23239;51.504;7.456;2023-04-24T05:43:00;11.0;;;7.0;;
37365;SDS011;23239;51.504;7.456;2023-04-24T05:44:00;11.0;;;7.0;;
37365;SDS011;23239;51.504;7.456;2023-04-24T05:45:00;11.2;;;7.0;;
37365;SDS011;23239;51.504;7.456;2023-04-24T05:46:00;11.2;;;7.0;;
37365;SDS011;23239;51.504;7.456;2023-04-24T05:47:00;11.2;;;7.0;;
37365;SDS011;23239;51.504;7.456;2023-04-24T05:48:00;11.2;;;7.0;;
37365;SDS011;23239;51.504;7.456;2023-04-24T05:49:00;11.2;;;7.0;;
37365;SDS011;23239;51.504;7.456;2023-04-24T05:50:00;10.3;;;7.0;;
37365;SDS011;23239;51.504;7.456;2023-04-24T05:51:00;10.3;;;7.0;;
37365;SDS011;23239;51.504;7.456;2023-04-24T05:52:00;10.3;;;7.0;;
37365;SDS011;23239;51.504;7.456;2023-04-24T05:53:00;10.3;;;7.0;;
37365;SDS011;23239;51.504;7.456;2023-04-24T05:54:00;10.3;;;7.0;;
37365;SDS011;23239;51.504;7.456;2023-04-24T05:55:00;11.1;;;7.0;;
37365;SDS011;23239;51.504;7.456;2023-04-24T05:56:00;11.1;;;7.0;;
37365;SDS011;23239;51.504;7.456;2023-04-24T05:57:00;11.1;;;7.0;;
37365;SDS011;23239;51.504;7.456;2023-04-24T05:58:00;11.1;;;7.0;;
37365;SDS011;23239;51.504;7.456;2023-04-24T05:59:00;11.1;;;7.0;;
37365;SDS011;23239;51.504;7.456;2023-04-24T06:00:00;10.0;;;6.2;;
37365;SDS011;23239;51.504;7.456;2023-04-24T06:01:00;10.0;;;6.2;;
37365;SDS011;23239;51.504;7.456;2023-04-24T06:02:00;10.0;;;6.2;;
37365;SDS011;23239;51.504;7.456;2023-04-24T06:03:00;10.0;;;6.2;;
37365;SDS011;23239;51.504;7.456;2023-04-24T06:04:00;10.0;;;6.2;;
37365;SDS011;23239;51.504;7.456;2023-04-24T06:05:00;9.0;;;6.6;;
37365;SDS011;23239;51.504;7.456;2023-04-24T06:06:00;9.0;;;6.6;;
37365;SDS011;23239;51.504;7.456;2023-04-24T06:07:00;9.0;;;6.6;;
37365;SDS011;23239;51.504;7.456;2023-04-24T06:08:00;9.0;;;6.6;;
37365;SDS011;23239;51.504;7.456;2023-04-24T06:09:00;9.0;;;6.6;;
37365;SDS011;23239;51.504;7.456;2023-04-24T06:10:00;10.9;;;7.4;;